Time;durP1;ratioP1;P1;durP2;ratioP2;P2;SDS_P1;SDS_P2;PMS_P1;PMS_P2;Temp;Humidity;BMP_temperature;BMP_pressure;BME280_temperature;BME280_humidity;BME280_pressure;Samples;Min_cycle;Max_cycle;Signal;HPM_P1;HPM_P2
2022/06/02 04:01:25;;;;;;;1.77;1.67;;;15.40;90.80;;;;;;5642224;23;20492;-68
2022/06/02 04:04:06;;;;;;;1.97;1.87;;;15.40;91.00;;;;;;5015347;28;20441;-68
2022/06/02 04:06:48;;;;;;;1.80;1.70;;;15.40;91.10;;;;;;5015171;28;20450;-68
2022/06/02 04:09:28;;;;;;;2.03;1.60;;;15.40;91.00;;;;;;5015433;28;20532;-68
2022/06/02 04:15:05;;;;;;;1.80;1.70;;;15.40;91.40;;;;;;5015056;28;20417;-67
2022/06/02 04:17:40;;;;;;;1.73;1.63;;;15.40;91.60;;;;;;5015066;28;20519;-67
2022/06/02 04:20:36;;;;;;;2.13;1.40;;;15.40;92.10;;;;;;5014911;28;20444;-68
2022/06/02 04:23:28;;;;;;;1.80;1.70;;;15.40;92.30;;;;;;5014839;28;20464;-68
2022/06/02 04:26:09;;;;;;;1.90;1.60;;;15.40;93.20;;;;;;5015106;28;20434;-68
2022/06/02 04:28:47;;;;;;;1.73;1.63;;;15.40;93.30;;;;;;5015102;28;20467;-68
2022/06/02 04:31:29;;;;;;;2.20;2.00;;;15.40;93.70;;;;;;5014587;28;20480;-68
2022/06/02 04:34:07;;;;;;;1.90;1.80;;;15.40;93.80;;;;;;5014913;28;20796;-67
2022/06/02 04:36:43;;;;;;;1.63;1.53;;;15.40;94.30;;;;;;5015562;28;20998;-68
2022/06/02 04:39:19;;;;;;;2.10;2.00;;;15.40;94.50;;;;;;5014939;28;20495;-68
2022/06/02 04:41:53;;;;;;;1.90;1.80;;;15.40;94.50;;;;;;5014752;28;20476;-68
2022/06/02 04:44:28;;;;;;;2.30;2.10;;;15.50;94.20;;;;;;5016129;28;20803;-68
2022/06/02 04:47:06;;;;;;;2.23;2.07;;;15.60;94.30;;;;;;5015480;28;20433;-68
2022/06/02 04:49:41;;;;;;;5.80;1.77;;;15.60;93.00;;;;;;5014687;28;20441;-67
2022/06/02 04:52:16;;;;;;;1.83;1.73;;;15.60;93.10;;;;;;5014210;28;20476;-67
2022/06/02 04:54:52;;;;;;;2.73;1.77;;;15.70;93.20;;;;;;5015021;28;20511;-68
2022/06/02 04:57:25;;;;;;;2.37;2.17;;;15.70;93.20;;;;;;5013967;28;20835;-68
2022/06/02 05:00:01;;;;;;;2.00;1.90;;;15.70;92.80;;;;;;5015116;28;20778;-68
2022/06/02 05:02:36;;;;;;;2.03;1.93;;;15.70;93.00;;;;;;5015140;28;20484;-67
2022/06/02 05:05:12;;;;;;;2.70;2.33;;;15.80;92.30;;;;;;5014506;28;20437;-68
2022/06/02 05:07:55;;;;;;;2.13;2.03;;;15.80;92.30;;;;;;5014283;28;20440;-67
2022/06/02 05:10:29;;;;;;;2.87;1.87;;;15.90;92.20;;;;;;5013729;28;20904;-67
2022/06/02 05:13:05;;;;;;;2.30;1.73;;;16.00;91.90;;;;;;5014160;28;20800;-68
2022/06/02 05:15:57;;;;;;;2.23;2.10;;;16.20;92.20;;;;;;5013885;28;20436;-68
2022/06/02 05:18:39;;;;;;;1.97;1.83;;;16.30;91.90;;;;;;5012254;28;20453;-68
2022/06/02 05:21:46;;;;;;;2.40;2.03;;;16.50;91.10;;;;;;5014270;28;20476;-68
2022/06/02 05:24:41;;;;;;;2.03;1.93;;;16.50;86.50;;;;;;5014278;28;20801;-68
2022/06/02 05:27:41;;;;;;;2.53;1.90;;;16.70;86.50;;;;;;5014444;28;20437;-67
2022/06/02 05:30:43;;;;;;;3.73;2.33;;;16.90;85.40;;;;;;5014229;28;20445;-68
2022/06/02 05:33:49;;;;;;;5.87;2.03;;;17.00;85.10;;;;;;5008891;28;20453;-67
2022/06/02 05:36:50;;;;;;;2.50;2.30;;;17.20;84.40;;;;;;4957074;28;20868;-67
2022/06/02 05:39:32;;;;;;;3.30;2.03;;;17.40;85.10;;;;;;5014493;28;20458;-68
2022/06/02 05:42:11;;;;;;;2.10;2.00;;;17.60;83.90;;;;;;5014005;28;20477;-66
2022/06/02 05:44:56;;;;;;;2.93;2.07;;;17.60;81.30;;;;;;5017499;28;20445;-66
2022/06/02 05:47:33;;;;;;;2.50;2.00;;;17.60;80.80;;;;;;5017839;28;20456;-66
2022/06/02 05:50:11;;;;;;;2.73;1.83;;;17.70;81.80;;;;;;5018116;28;20540;-66
2022/06/02 05:52:51;;;;;;;2.17;1.90;;;17.70;80.30;;;;;;5018426;28;20449;-67
2022/06/02 05:55:29;;;;;;;2.30;2.10;;;17.80;80.30;;;;;;5017722;28;20927;-65
2022/06/02 05:58:09;;;;;;;2.00;1.80;;;18.00;81.10;;;;;;5017638;28;20822;-66
2022/06/02 06:00:48;;;;;;;7.13;2.40;;;18.10;80.00;;;;;;5018719;28;20491;-64
2022/06/02 06:03:29;;;;;;;2.60;2.40;;;18.20;81.10;;;;;;5017870;28;20448;-65
2022/06/02 06:06:03;;;;;;;2.00;1.90;;;18.20;78.00;;;;;;5017675;28;20495;-66
2022/06/02 06:08:54;;;;;;;6.73;2.93;;;18.30;78.80;;;;;;5017387;28;20449;-65
2022/06/02 06:11:33;;;;;;;12.33;2.40;;;18.40;77.60;;;;;;5018747;28;20476;-65
2022/06/02 06:14:14;;;;;;;2.40;2.20;;;18.40;77.50;;;;;;5017920;28;20441;-65
2022/06/02 06:16:46;;;;;;;2.50;2.30;;;18.50;76.90;;;;;;5017053;28;20963;-66
2022/06/02 06:19:32;;;;;;;4.03;2.93;;;18.60;77.30;;;;;;5018020;28;20437;-66
2022/06/02 06:22:12;;;;;;;1.97;1.97;;;18.60;76.60;;;;;;5018061;28;20476;-65
2022/06/02 06:25:07;;;;;;;2.50;2.20;;;18.70;75.40;;;;;;5017996;28;20447;-64
2022/06/02 06:27:39;;;;;;;2.63;2.43;;;18.80;75.90;;;;;;5019009;28;20757;-65
2022/06/02 06:30:20;;;;;;;2.43;2.27;;;19.00;84.80;;;;;;5018372;28;20465;-65
2022/06/02 06:32:59;;;;;;;2.70;2.60;;;19.20;83.50;;;;;;5017255;28;20495;-65
2022/06/02 06:35:38;;;;;;;2.83;2.30;;;19.20;74.50;;;;;;5016931;28;20441;-66
2022/06/02 06:38:19;;;;;;;2.73;2.00;;;19.40;74.60;;;;;;5021152;28;20468;-65
2022/06/02 06:41:00;;;;;;;3.37;2.67;;;19.50;74.20;;;;;;5022725;28;20491;-65
2022/06/02 06:43:45;;;;;;;2.60;2.40;;;19.50;74.50;;;;;;5017152;28;20448;-66
2022/06/02 06:46:22;;;;;;;2.50;2.23;;;19.50;75.10;;;;;;5017186;28;20445;-66
2022/06/02 06:48:57;;;;;;;5.63;2.43;;;19.60;73.40;;;;;;5017045;28;20441;-65
2022/06/02 06:51:34;;;;;;;4.43;2.33;;;19.80;74.60;;;;;;5017541;28;20606;-65
2022/06/02 06:54:09;;;;;;;8.23;2.27;;;20.10;75.10;;;;;;5016658;28;20460;-66
2022/06/02 06:56:48;;;;;;;2.57;2.33;;;20.50;72.90;;;;;;5016618;28;20576;-66
2022/06/02 06:59:24;;;;;;;2.70;2.50;;;20.90;70.80;;;;;;5016732;28;20449;-66
2022/06/02 07:02:02;;;;;;;2.90;2.53;;;21.50;68.40;;;;;;5016465;28;20520;-65
2022/06/02 07:04:37;;;;;;;3.70;2.53;;;21.90;65.20;;;;;;5016474;28;20472;-65
2022/06/02 07:07:12;;;;;;;2.17;2.07;;;22.20;65.90;;;;;;5016395;28;20444;-65
2022/06/02 07:09:48;;;;;;;3.67;2.43;;;22.50;64.10;;;;;;5016216;28;20499;-66
2022/06/02 07:15:12;;;;;;;1.90;1.80;;;23.80;62.10;;;;;;5016409;28;20468;-65
2022/06/02 07:17:46;;;;;;;3.10;2.40;;;24.30;60.10;;;;;;5016278;28;20806;-66
2022/06/02 07:20:19;;;;;;;4.07;2.20;;;24.50;58.50;;;;;;5016568;28;20436;-66
2022/06/02 07:22:55;;;;;;;2.63;2.43;;;24.30;59.20;;;;;;5016670;28;20441;-65
2022/06/02 07:25:27;;;;;;;5.37;2.57;;;24.40;58.50;;;;;;5016359;28;20456;-66
2022/06/02 07:28:02;;;;;;;6.43;2.00;;;24.60;58.70;;;;;;5016179;28;20509;-65
2022/06/02 07:30:43;;;;;;;4.70;2.00;;;25.10;57.50;;;;;;5016000;28;20448;-64
2022/06/02 07:33:39;;;;;;;2.40;2.20;;;25.50;57.30;;;;;;5016348;28;20460;-65
2022/06/02 07:36:42;;;;;;;2.33;2.17;;;25.70;55.90;;;;;;5012462;28;20471;-65
2022/06/02 07:39:41;;;;;;;1.53;1.43;;;25.60;56.50;;;;;;5017902;28;20835;-66
2022/06/02 07:42:25;;;;;;;5.60;2.37;;;25.80;55.50;;;;;;5016919;28;20481;-66
2022/06/02 07:45:31;;;;;;;2.00;1.80;;;25.90;55.50;;;;;;5016322;28;20471;-65
2022/06/02 07:48:45;;;;;;;2.20;1.70;;;26.30;55.40;;;;;;5015678;28;20476;-66
2022/06/02 07:51:18;;;;;;;1.80;1.70;;;26.80;53.90;;;;;;5015283;28;20472;-65
2022/06/02 07:54:18;;;;;;;1.97;1.87;;;27.10;53.30;;;;;;5015787;28;20521;-66
2022/06/02 07:56:54;;;;;;;1.70;1.60;;;27.20;52.50;;;;;;5015292;28;20970;-66
2022/06/02 07:59:38;;;;;;;2.30;1.77;;;27.40;52.60;;;;;;5015497;28;20467;-65
2022/06/02 08:02:21;;;;;;;2.50;1.93;;;27.60;53.20;;;;;;5015487;28;20485;-66
2022/06/02 08:05:01;;;;;;;2.10;1.90;;;27.90;51.50;;;;;;5015667;28;20445;-66
2022/06/02 08:07:35;;;;;;;2.63;2.10;;;27.60;51.10;;;;;;5015827;28;20433;-66
2022/06/02 08:10:17;;;;;;;1.70;1.47;;;27.70;50.10;;;;;;5015742;28;20444;-66
2022/06/02 08:12:50;;;;;;;2.50;1.70;;;27.60;51.30;;;;;;5017789;28;20924;-65
2022/06/02 08:15:30;;;;;;;4.43;1.73;;;28.00;50.40;;;;;;5018480;28;20437;-65
2022/06/02 08:18:08;;;;;;;1.73;1.63;;;28.20;50.40;;;;;;5017394;28;20469;-66
2022/06/02 08:20:47;;;;;;;3.30;1.70;;;28.20;51.80;;;;;;5015442;28;20483;-66
2022/06/02 08:23:30;;;;;;;1.80;1.70;;;28.30;51.10;;;;;;5015577;28;20440;-67
2022/06/02 08:26:13;;;;;;;3.03;2.30;;;28.80;48.80;;;;;;5015407;28;20444;-66
2022/06/02 08:28:55;;;;;;;1.97;1.87;;;28.80;47.90;;;;;;5015083;28;20433;-65
2022/06/02 08:31:48;;;;;;;1.47;1.47;;;28.20;48.60;;;;;;5015069;28;20481;-66
2022/06/02 08:34:22;;;;;;;1.50;1.50;;;28.40;50.10;;;;;;5014997;28;20480;-66
2022/06/02 08:36:58;;;;;;;1.53;1.40;;;28.40;49.00;;;;;;5015828;28;20441;-66
2022/06/02 08:39:49;;;;;;;1.70;1.60;;;28.70;48.50;;;;;;5017297;28;20441;-65
2022/06/02 08:42:33;;;;;;;1.80;1.50;;;28.50;48.50;;;;;;5015887;28;20477;-67
2022/06/02 08:45:52;;;;;;;1.60;1.50;;;28.30;49.10;;;;;;5015967;28;20437;-66
2022/06/02 08:48:58;;;;;;;1.53;1.43;;;28.30;49.50;;;;;;4974363;28;20852;-65
2022/06/02 08:52:19;;;;;;;1.93;1.83;;;28.80;48.60;;;;;;4974012;28;20485;-65
2022/06/02 08:55:25;;;;;;;2.43;1.53;;;28.80;47.80;;;;;;5015360;28;20833;-65
2022/06/02 08:58:28;;;;;;;2.23;2.10;;;29.10;48.70;;;;;;5015095;28;20483;-66
2022/06/02 09:01:06;;;;;;;1.30;1.30;;;29.30;46.90;;;;;;4977238;28;20506;-66
2022/06/02 09:04:19;;;;;;;1.70;1.60;;;29.80;48.60;;;;;;5014865;28;20464;-66
2022/06/02 09:07:23;;;;;;;1.80;1.40;;;30.00;45.90;;;;;;4973616;28;20829;-65
2022/06/02 09:10:39;;;;;;;1.77;1.67;;;30.10;47.00;;;;;;5015018;28;20791;-65
2022/06/02 09:13:54;;;;;;;2.30;1.40;;;30.20;46.10;;;;;;5018371;28;20453;-66
2022/06/02 09:16:22;;;;;;;1.90;1.37;;;30.10;46.70;;;;;;5014776;28;20503;-65
2022/06/02 09:19:03;;;;;;;1.67;1.57;;;30.80;47.60;;;;;;5018617;28;20476;-65
2022/06/02 09:21:44;;;;;;;1.63;1.40;;;31.40;45.60;;;;;;5021913;28;21014;-66
2022/06/02 09:24:25;;;;;;;1.53;1.40;;;31.40;44.50;;;;;;5028673;28;20437;-66
2022/06/02 09:27:03;;;;;;;1.80;1.70;;;31.70;45.20;;;;;;5018645;28;20436;-66
2022/06/02 09:29:40;;;;;;;3.43;1.60;;;31.30;44.40;;;;;;5018389;28;20444;-65
2022/06/02 09:32:31;;;;;;;1.53;1.53;;;31.40;46.30;;;;;;5018608;28;20475;-66
2022/06/02 09:35:10;;;;;;;1.73;1.60;;;31.50;45.90;;;;;;5018400;28;20447;-67
2022/06/02 09:38:13;;;;;;;1.40;1.40;;;31.90;44.70;;;;;;5018847;28;20464;-66
2022/06/02 09:40:48;;;;;;;1.43;1.33;;;32.40;44.60;;;;;;5017991;28;20476;-66
2022/06/02 09:43:42;;;;;;;2.23;1.73;;;32.30;43.00;;;;;;5017868;28;20436;-65
2022/06/02 09:46:39;;;;;;;1.70;1.63;;;31.70;44.40;;;;;;5018615;28;21005;-66
2022/06/02 09:49:26;;;;;;;1.60;1.60;;;31.50;43.70;;;;;;5018218;28;20448;-66
2022/06/02 09:51:59;;;;;;;1.63;1.53;;;31.50;44.40;;;;;;5017933;28;20476;-65
2022/06/02 09:55:02;;;;;;;2.43;1.60;;;31.80;42.50;;;;;;5017920;28;20451;-66
2022/06/02 09:57:59;;;;;;;1.53;1.50;;;31.80;43.90;;;;;;5011152;28;20472;-66
2022/06/02 10:00:54;;;;;;;2.20;1.73;;;31.40;42.80;;;;;;5010729;28;20828;-66
2022/06/02 10:03:38;;;;;;;2.70;1.50;;;31.30;45.60;;;;;;5016378;28;20457;-66
2022/06/02 10:06:22;;;;;;;3.10;1.30;;;31.60;43.50;;;;;;5018261;28;20451;-66
2022/06/02 10:09:07;;;;;;;1.40;1.30;;;31.70;45.50;;;;;;5017994;28;20428;-66
2022/06/02 10:11:47;;;;;;;1.50;1.40;;;31.50;43.90;;;;;;5018012;28;20469;-66
2022/06/02 10:14:48;;;;;;;2.83;1.60;;;31.30;45.00;;;;;;5017832;28;20905;-67
2022/06/02 10:17:41;;;;;;;2.17;2.00;;;31.40;45.00;;;;;;5017710;28;20439;-66
2022/06/02 10:20:33;;;;;;;1.60;1.50;;;31.70;46.00;;;;;;5017632;28;20536;-66
2022/06/02 10:23:05;;;;;;;1.57;1.47;;;32.00;44.40;;;;;;4995244;28;20964;-66
2022/06/02 10:25:56;;;;;;;1.60;1.50;;;32.00;44.00;;;;;;5017890;28;20437;-66
2022/06/02 10:28:48;;;;;;;1.50;1.40;;;31.50;43.60;;;;;;5017228;28;20457;-67
2022/06/02 10:31:51;;;;;;;1.80;1.20;;;31.70;44.40;;;;;;5017390;28;20546;-66
2022/06/02 10:34:50;;;;;;;1.40;1.40;;;31.70;43.90;;;;;;5017694;28;20468;-65
2022/06/02 10:37:51;;;;;;;2.00;1.53;;;31.20;43.60;;;;;;5017374;28;20440;-65
2022/06/02 10:40:45;;;;;;;3.87;1.57;;;30.80;44.10;;;;;;5001600;28;20459;-66
2022/06/02 10:43:56;;;;;;;1.77;1.67;;;30.70;45.10;;;;;;5017716;28;20461;-67
2022/06/02 10:46:58;;;;;;;3.13;1.50;;;31.20;45.80;;;;;;5017475;28;20507;-66
2022/06/02 10:49:35;;;;;;;2.30;1.57;;;31.50;44.10;;;;;;5016985;28;20432;-66
2022/06/02 10:52:52;;;;;;;2.03;1.93;;;31.60;42.30;;;;;;5016740;28;20476;-67
2022/06/02 10:55:51;;;;;;;2.37;2.27;;;31.70;43.80;;;;;;5016784;28;20459;-66
2022/06/02 10:58:48;;;;;;;1.77;1.40;;;31.50;43.30;;;;;;5017084;28;20505;-66
2022/06/02 11:01:44;;;;;;;2.83;1.30;;;31.30;43.90;;;;;;5016688;28;20480;-66
2022/06/02 11:04:51;;;;;;;1.47;1.20;;;31.30;42.70;;;;;;5018427;28;20816;-66
2022/06/02 11:07:46;;;;;;;1.57;1.10;;;31.50;45.30;;;;;;5017379;28;20444;-66
2022/06/02 11:10:30;;;;;;;1.27;1.20;;;31.40;46.40;;;;;;5016698;28;20817;-65
2022/06/02 11:13:36;;;;;;;1.60;1.10;;;31.50;43.70;;;;;;5016473;28;20444;-65
2022/06/02 11:16:33;;;;;;;1.60;1.50;;;31.70;44.60;;;;;;5014628;28;20456;-65
2022/06/02 11:19:37;;;;;;;1.70;1.60;;;31.30;44.70;;;;;;5016421;28;20461;-66
2022/06/02 11:22:31;;;;;;;1.50;1.40;;;31.30;44.80;;;;;;5016207;28;20472;-66
2022/06/02 11:25:30;;;;;;;2.60;1.90;;;30.80;44.40;;;;;;5015932;28;20437;-65
2022/06/02 11:28:19;;;;;;;1.60;1.50;;;30.50;46.60;;;;;;5020866;28;20456;-65
2022/06/02 11:31:19;;;;;;;1.37;1.27;;;30.00;46.40;;;;;;5020954;28;20481;-65
2022/06/02 11:34:05;;;;;;;1.40;1.30;;;29.60;46.40;;;;;;5017764;28;20466;-65
2022/06/02 11:36:54;;;;;;;4.87;1.73;;;29.50;47.90;;;;;;5016889;28;20471;-66
2022/06/02 11:40:05;;;;;;;1.60;1.50;;;29.20;46.40;;;;;;5016168;28;20967;-66
2022/06/02 11:42:57;;;;;;;1.30;1.20;;;29.10;47.60;;;;;;5005157;28;20487;-65
2022/06/02 11:45:42;;;;;;;1.97;1.37;;;29.00;47.30;;;;;;5015787;28;20441;-65
2022/06/02 11:48:29;;;;;;;5.87;1.30;;;28.70;49.20;;;;;;5015809;28;20951;-65
2022/06/02 11:51:21;;;;;;;1.60;1.50;;;28.80;49.60;;;;;;5016103;28;20472;-65
2022/06/02 11:54:02;;;;;;;1.57;1.47;;;28.80;48.20;;;;;;5016243;28;20456;-65
2022/06/02 11:56:39;;;;;;;3.13;1.50;;;28.70;46.30;;;;;;5015746;28;20449;-65
2022/06/02 11:59:42;;;;;;;3.27;1.40;;;28.50;47.20;;;;;;5016401;28;20461;-65
2022/06/02 12:02:41;;;;;;;1.43;1.33;;;28.50;48.70;;;;;;4999383;28;20479;-64
2022/06/02 12:05:43;;;;;;;5.13;1.90;;;28.50;49.10;;;;;;5015490;28;20459;-65
2022/06/02 12:08:55;;;;;;;1.73;1.63;;;28.40;49.90;;;;;;4993967;28;20452;-65
2022/06/02 12:11:35;;;;;;;1.87;1.70;;;28.40;50.20;;;;;;5015337;28;20472;-65
2022/06/02 12:14:32;;;;;;;8.80;2.00;;;28.50;48.20;;;;;;5015391;28;20433;-66
2022/06/02 12:17:15;;;;;;;1.53;1.43;;;28.60;48.70;;;;;;5015235;28;20912;-66
2022/06/02 12:19:58;;;;;;;2.00;1.63;;;28.60;49.40;;;;;;5015516;28;20461;-66
2022/06/02 12:23:01;;;;;;;1.70;1.60;;;28.70;49.80;;;;;;5015237;28;20496;-67
2022/06/02 12:25:54;;;;;;;3.73;2.00;;;28.80;49.90;;;;;;5015236;28;20441;-65
2022/06/02 12:28:43;;;;;;;5.30;1.70;;;28.30;49.70;;;;;;5013291;28;20457;-65
2022/06/02 12:31:46;;;;;;;1.93;1.83;;;28.40;50.00;;;;;;5015298;28;20887;-65
2022/06/02 12:34:50;;;;;;;2.10;1.90;;;28.00;48.70;;;;;;5014869;28;20448;-66
2022/06/02 12:37:41;;;;;;;1.70;1.60;;;28.00;51.40;;;;;;5022879;28;20433;-66
2022/06/02 12:40:39;;;;;;;2.97;1.50;;;28.10;51.30;;;;;;5018800;28;20819;-66
2022/06/02 12:43:39;;;;;;;2.63;1.30;;;28.20;50.20;;;;;;5014530;28;20484;-66
2022/06/02 12:46:47;;;;;;;1.30;1.30;;;28.20;50.10;;;;;;5010970;28;20460;-65
2022/06/02 12:49:52;;;;;;;3.90;1.80;;;28.20;50.30;;;;;;5003786;28;20456;-65
2022/06/02 12:52:54;;;;;;;1.80;1.70;;;28.20;51.70;;;;;;5013616;28;20468;-65
2022/06/02 12:55:44;;;;;;;1.57;1.47;;;28.30;49.50;;;;;;5014250;28;20436;-66
2022/06/02 12:58:43;;;;;;;1.57;1.47;;;28.20;50.90;;;;;;5014443;28;20441;-66
2022/06/02 13:01:20;;;;;;;1.50;1.40;;;28.20;49.70;;;;;;5016646;28;20491;-66
2022/06/02 13:04:20;;;;;;;1.93;1.50;;;28.10;50.70;;;;;;5014233;28;20986;-67
2022/06/02 13:07:25;;;;;;;3.23;1.57;;;28.00;50.70;;;;;;5014107;28;20453;-66
2022/06/02 13:10:28;;;;;;;1.60;1.50;;;27.90;51.00;;;;;;5014198;28;20448;-65
2022/06/02 13:13:25;;;;;;;1.57;1.57;;;27.70;51.20;;;;;;5014191;28;20484;-65
2022/06/02 13:16:10;;;;;;;3.10;2.83;;;27.70;52.10;;;;;;5014020;28;20510;-65
2022/06/02 13:19:01;;;;;;;2.70;1.90;;;27.60;51.80;;;;;;5014042;28;20483;-65
2022/06/02 13:22:02;;;;;;;1.63;1.53;;;27.40;51.60;;;;;;5014037;28;20499;-66
2022/06/02 13:24:48;;;;;;;1.90;1.80;;;27.30;52.90;;;;;;5014830;28;20512;-65
2022/06/02 13:27:49;;;;;;;1.53;1.40;;;27.30;53.10;;;;;;5017443;28;20464;-65
2022/06/02 13:30:58;;;;;;;2.60;1.50;;;27.20;54.70;;;;;;5016598;28;20441;-66
2022/06/02 13:33:47;;;;;;;2.10;1.60;;;27.30;52.60;;;;;;4953641;28;20456;-66
2022/06/02 13:36:32;;;;;;;1.80;1.70;;;27.30;51.90;;;;;;5014068;28;20933;-65
2022/06/02 13:39:49;;;;;;;1.70;1.60;;;27.30;52.20;;;;;;5014948;28;20551;-66
2022/06/02 13:42:49;;;;;;;2.40;1.20;;;27.20;52.40;;;;;;5015037;28;20472;-65
2022/06/02 13:45:56;;;;;;;2.00;1.40;;;27.10;52.80;;;;;;5014122;28;20440;-64
2022/06/02 13:48:52;;;;;;;1.83;1.70;;;27.20;53.40;;;;;;5014136;28;20448;-65
2022/06/02 13:51:59;;;;;;;2.03;1.30;;;27.10;54.40;;;;;;5013735;28;20539;-65
2022/06/02 13:58:11;;;;;;;2.97;1.63;;;27.30;53.50;;;;;;5013668;28;20795;-65
2022/06/02 14:01:01;;;;;;;2.63;1.97;;;27.20;54.30;;;;;;5013611;28;20481;-65
2022/06/02 14:03:55;;;;;;;6.10;1.53;;;27.10;53.80;;;;;;5014210;28;20453;-65
2022/06/02 14:06:23;;;;;;;1.80;1.70;;;26.80;54.40;;;;;;5017610;28;20433;-65
2022/06/02 14:09:24;;;;;;;2.10;1.53;;;26.70;54.70;;;;;;5017428;28;20455;-65
2022/06/02 14:12:08;;;;;;;1.70;1.60;;;26.80;53.60;;;;;;5000977;28;20476;-65
2022/06/02 14:14:56;;;;;;;1.67;1.40;;;26.80;54.60;;;;;;5017448;28;20437;-65
2022/06/02 14:17:43;;;;;;;2.97;1.97;;;27.00;55.60;;;;;;5017282;28;20444;-65
2022/06/02 14:20:22;;;;;;;1.73;1.40;;;27.00;54.10;;;;;;5017326;28;20464;-65
2022/06/02 14:22:59;;;;;;;2.07;1.30;;;27.10;53.80;;;;;;5018528;28;20460;-65
2022/06/02 14:25:38;;;;;;;4.47;1.60;;;27.20;55.30;;;;;;5027415;28;20447;-65
2022/06/02 14:28:19;;;;;;;2.80;1.70;;;27.20;54.20;;;;;;5026144;28;20955;-64
2022/06/02 14:30:54;;;;;;;1.70;1.40;;;26.90;54.20;;;;;;5020348;28;20477;-65
2022/06/02 14:33:28;;;;;;;1.73;1.63;;;26.80;54.40;;;;;;5019284;28;20928;-65
2022/06/02 14:36:00;;;;;;;1.97;1.87;;;26.70;54.20;;;;;;5018515;28;20441;-64
2022/06/02 14:38:49;;;;;;;2.20;2.00;;;26.60;54.50;;;;;;5018003;28;20491;-65
2022/06/02 14:41:23;;;;;;;1.50;1.40;;;26.50;54.00;;;;;;5017669;28;20469;-65
2022/06/02 14:44:12;;;;;;;3.17;2.30;;;26.40;54.90;;;;;;5017537;28;20433;-65
2022/06/02 14:47:00;;;;;;;1.87;1.73;;;26.50;55.50;;;;;;5008409;28;20471;-65
2022/06/02 14:49:45;;;;;;;4.77;1.97;;;26.70;55.20;;;;;;5017009;28;20437;-65
2022/06/02 14:52:30;;;;;;;1.73;1.63;;;26.80;55.40;;;;;;5016696;28;20477;-65
2022/06/02 14:55:10;;;;;;;2.07;1.70;;;27.10;53.30;;;;;;5016912;28;20469;-65
2022/06/02 14:57:45;;;;;;;2.10;1.90;;;27.10;54.20;;;;;;5016543;28;20863;-65
2022/06/02 15:00:21;;;;;;;2.20;1.60;;;27.00;55.00;;;;;;5016544;28;20460;-65
2022/06/02 15:03:12;;;;;;;1.50;1.40;;;26.90;55.90;;;;;;5016704;28;20440;-65
2022/06/02 15:05:58;;;;;;;5.20;1.50;;;26.80;55.00;;;;;;5018294;28;20437;-65
2022/06/02 15:09:24;;;;;;;2.43;1.60;;;26.60;54.90;;;;;;5016423;28;20441;-65
2022/06/02 15:12:02;;;;;;;1.80;1.70;;;26.50;55.20;;;;;;5016266;28;20808;-64
2022/06/02 15:14:53;;;;;;;4.10;1.50;;;26.70;55.40;;;;;;5016225;28;20443;-65
2022/06/02 15:18:01;;;;;;;4.70;2.13;;;26.80;56.00;;;;;;5016166;28;20445;-65
2022/06/02 15:21:01;;;;;;;1.90;1.80;;;27.00;55.50;;;;;;5015977;28;20841;-67
2022/06/02 15:23:53;;;;;;;1.90;1.77;;;27.00;55.10;;;;;;4993783;28;20956;-65
2022/06/02 15:26:43;;;;;;;1.80;1.70;;;27.10;55.00;;;;;;5015716;28;20931;-66
2022/06/02 15:29:18;;;;;;;2.10;1.90;;;27.00;55.70;;;;;;5015761;28;20440;-65
2022/06/02 15:32:05;;;;;;;1.80;1.70;;;26.80;55.40;;;;;;5016167;28;20484;-65
2022/06/02 15:35:07;;;;;;;2.13;1.80;;;26.50;55.50;;;;;;5016699;28;20441;-65
2022/06/02 15:38:12;;;;;;;2.70;1.93;;;26.50;56.00;;;;;;5017195;28;20441;-65
2022/06/02 15:41:20;;;;;;;1.93;1.83;;;26.30;56.50;;;;;;5015148;28;20488;-65
2022/06/02 15:44:15;;;;;;;1.80;1.70;;;26.20;56.70;;;;;;5015747;28;20452;-66
2022/06/02 15:47:11;;;;;;;1.73;1.73;;;26.20;57.00;;;;;;5016088;28;20452;-64
2022/06/02 15:50:22;;;;;;;1.67;1.40;;;26.00;57.50;;;;;;5013198;28;20444;-65
2022/06/02 15:53:13;;;;;;;2.30;2.17;;;26.00;57.70;;;;;;4985962;28;20463;-65
2022/06/02 15:56:32;;;;;;;3.10;2.00;;;25.70;57.10;;;;;;5019560;28;20440;-65
2022/06/02 15:59:31;;;;;;;2.23;1.73;;;25.70;57.80;;;;;;5015189;28;20503;-65
2022/06/02 16:02:43;;;;;;;1.50;1.50;;;25.50;57.70;;;;;;5015188;28;20556;-64
2022/06/02 16:05:43;;;;;;;5.43;2.00;;;25.50;58.60;;;;;;4979436;28;20936;-64
2022/06/02 16:08:47;;;;;;;1.90;1.80;;;25.40;58.90;;;;;;5015858;28;20947;-64
2022/06/02 16:12:03;;;;;;;3.43;2.00;;;25.30;60.20;;;;;;5020444;28;20469;-65
2022/06/02 16:15:01;;;;;;;5.53;1.77;;;25.20;60.70;;;;;;4982161;28;20455;-65
2022/06/02 16:18:07;;;;;;;4.00;1.63;;;25.10;59.00;;;;;;5020105;28;20433;-65
2022/06/02 16:20:56;;;;;;;2.00;1.77;;;25.10;59.70;;;;;;5015086;28;20496;-65
2022/06/02 16:23:54;;;;;;;1.93;1.83;;;25.10;59.00;;;;;;5015027;28;20932;-65
2022/06/02 16:26:45;;;;;;;2.30;2.17;;;25.10;59.50;;;;;;5012596;28;20507;-66
2022/06/02 16:29:55;;;;;;;2.70;2.40;;;25.20;61.70;;;;;;5014989;28;20473;-65
2022/06/02 16:32:56;;;;;;;2.10;2.00;;;25.20;62.00;;;;;;5014661;28;20476;-65
2022/06/02 16:35:39;;;;;;;2.57;2.27;;;25.10;61.40;;;;;;5014945;28;20441;-66
2022/06/02 16:38:13;;;;;;;5.10;2.10;;;25.10;63.80;;;;;;5015187;28;20448;-65
2022/06/02 16:40:53;;;;;;;2.23;2.07;;;24.90;60.90;;;;;;5015076;28;20484;-64
2022/06/02 16:43:43;;;;;;;2.33;2.10;;;24.90;62.80;;;;;;5014621;28;20439;-65
2022/06/02 16:46:49;;;;;;;2.07;1.97;;;24.90;61.50;;;;;;5014415;28;20469;-65
2022/06/02 16:49:57;;;;;;;2.90;2.60;;;24.90;60.80;;;;;;5014261;28;20441;-65
2022/06/02 16:52:55;;;;;;;4.17;2.33;;;24.80;61.50;;;;;;4973057;28;20474;-65
2022/06/02 16:55:38;;;;;;;5.70;5.20;;;24.90;61.10;;;;;;5013721;28;20460;-65
2022/06/02 16:58:36;;;;;;;4.80;4.40;;;24.90;61.80;;;;;;5014437;28;20441;-64
2022/06/02 17:01:11;;;;;;;8.53;7.70;;;24.90;62.00;;;;;;5014106;28;20480;-65
2022/06/02 17:03:59;;;;;;;2.47;2.27;;;25.00;63.30;;;;;;5014448;28;20436;-64
2022/06/02 17:06:37;;;;;;;3.80;2.20;;;25.00;62.60;;;;;;5014312;28;20444;-64
2022/06/02 17:09:46;;;;;;;2.30;2.20;;;25.10;61.70;;;;;;5014258;28;20916;-65
2022/06/02 17:12:17;;;;;;;5.10;2.23;;;25.20;62.20;;;;;;4972733;28;20474;-64
2022/06/02 17:14:55;;;;;;;4.90;2.20;;;25.30;61.50;;;;;;5009154;28;20460;-65
2022/06/02 17:17:53;;;;;;;1.50;1.40;;;25.40;62.20;;;;;;5014078;28;20841;-65
2022/06/02 17:20:38;;;;;;;3.80;2.40;;;25.40;60.90;;;;;;5010534;28;20563;-64
2022/06/02 17:23:22;;;;;;;2.60;1.83;;;25.40;60.40;;;;;;5014001;28;20441;-64
2022/06/02 17:26:11;;;;;;;4.67;2.10;;;25.30;60.40;;;;;;5013970;28;20442;-64
2022/06/02 17:29:02;;;;;;;2.17;1.97;;;25.30;60.60;;;;;;5013894;28;20491;-65
2022/06/02 17:32:00;;;;;;;4.00;2.70;;;25.20;60.40;;;;;;5013763;28;20476;-66
2022/06/02 17:34:39;;;;;;;7.00;3.20;;;25.10;61.20;;;;;;5013530;28;20448;-67
2022/06/02 17:37:27;;;;;;;1.93;1.60;;;25.00;63.10;;;;;;5014587;28;20821;-65
2022/06/02 17:40:13;;;;;;;3.10;2.07;;;25.00;60.50;;;;;;5016000;28;20468;-64
2022/06/02 17:43:03;;;;;;;2.03;1.93;;;24.90;61.70;;;;;;5017420;28;20499;-66
2022/06/02 17:45:51;;;;;;;3.10;1.83;;;24.80;61.90;;;;;;5017464;28;20931;-65
2022/06/02 17:48:49;;;;;;;1.87;1.77;;;24.80;63.50;;;;;;5017520;28;20861;-65
2022/06/02 17:51:42;;;;;;;3.77;2.17;;;24.70;63.40;;;;;;5017386;28;20863;-65
2022/06/02 17:54:33;;;;;;;2.07;1.97;;;24.60;63.30;;;;;;5012821;28;20495;-65
2022/06/02 17:57:21;;;;;;;1.70;1.60;;;24.50;63.70;;;;;;4997601;28;20456;-65
2022/06/02 18:00:04;;;;;;;2.03;1.93;;;24.40;63.00;;;;;;5017240;28;20468;-65
2022/06/02 18:02:39;;;;;;;2.17;1.97;;;24.30;63.70;;;;;;5017594;28;20480;-66
2022/06/02 18:05:33;;;;;;;2.80;2.57;;;24.20;63.60;;;;;;5018060;28;20435;-66
2022/06/02 18:08:11;;;;;;;2.77;2.57;;;24.20;63.70;;;;;;5017469;28;20420;-66
2022/06/02 18:11:01;;;;;;;4.20;2.97;;;24.10;63.50;;;;;;5017562;28;20472;-65
2022/06/02 18:14:06;;;;;;;2.30;2.20;;;23.90;64.10;;;;;;5017234;28;20817;-64
2022/06/02 18:17:04;;;;;;;3.07;2.53;;;23.90;63.70;;;;;;5013580;28;20464;-66
2022/06/02 18:19:48;;;;;;;2.07;1.93;;;23.80;63.60;;;;;;5017098;28;20448;-65
2022/06/02 18:22:57;;;;;;;2.20;2.10;;;23.70;63.70;;;;;;5017019;28;20476;-65
2022/06/02 18:25:47;;;;;;;2.20;2.10;;;23.60;64.80;;;;;;5017365;28;20827;-65
2022/06/02 18:28:57;;;;;;;2.03;1.93;;;23.60;64.50;;;;;;5017218;28;20437;-65
2022/06/02 18:31:52;;;;;;;2.83;2.27;;;23.40;64.60;;;;;;5016851;28;20469;-65
2022/06/02 18:34:35;;;;;;;2.10;2.00;;;23.30;65.10;;;;;;5017462;28;20445;-65
2022/06/02 18:37:30;;;;;;;2.70;2.33;;;23.20;65.50;;;;;;5017391;28;20532;-65
2022/06/02 18:40:27;;;;;;;4.17;2.10;;;23.20;65.90;;;;;;4999129;28;20509;-66
2022/06/02 18:43:11;;;;;;;2.80;2.60;;;23.00;65.80;;;;;;5016600;28;20448;-66
2022/06/02 18:46:09;;;;;;;2.40;1.97;;;23.00;66.50;;;;;;5016666;28;20441;-66
2022/06/02 18:49:15;;;;;;;2.53;2.33;;;22.90;67.00;;;;;;5012651;28;20492;-65
2022/06/02 18:52:13;;;;;;;2.77;1.90;;;22.80;67.60;;;;;;5016064;28;20539;-65